Time;durP1;ratioP1;P1;durP2;ratioP2;P2;SDS_P1;SDS_P2;PMS_P1;PMS_P2;Temp;Humidity;BMP_temperature;BMP_pressure;BME280_temperature;BME280_humidity;BME280_pressure;Samples;Min_cycle;Max_cycle;Signal;HPM_P1;HPM_P2
2023/06/14 00:00:40;;;;;;;11.10;7.53;;;;;;;16.55;100.00;64706.06;5052325;28;20618;-61
2023/06/14 00:03:08;;;;;;;8.73;6.72;;;;;;;16.58;100.00;64709.34;5052173;28;20233;-61
2023/06/14 00:05:38;;;;;;;9.63;6.82;;;;;;;16.54;100.00;64704.94;5052237;28;20217;-61
2023/06/14 00:08:07;;;;;;;8.13;6.43;;;;;;;16.54;100.00;64704.94;5052241;28;20209;-62
2023/06/14 00:10:35;;;;;;;8.63;7.07;;;;;;;16.57;100.00;64705.72;5052465;28;20266;-62
2023/06/14 00:13:01;;;;;;;6.80;6.03;;;;;;;16.53;100.00;64703.31;5052251;28;20197;-61
2023/06/14 00:15:26;;;;;;;10.10;6.63;;;;;;;16.57;100.00;64708.28;5052112;28;20244;-57
2023/06/14 00:17:51;;;;;;;9.23;6.72;;;;;;;16.59;100.00;64707.38;5052191;28;20293;-57
2023/06/14 00:20:17;;;;;;;8.48;6.60;;;;;;;16.67;100.00;64718.72;5034245;28;20223;-59
2023/06/14 00:22:42;;;;;;;8.13;6.18;;;;;;;16.89;100.00;64742.94;5052106;28;20209;-57
2023/06/14 00:25:08;;;;;;;7.80;6.70;;;;;;;16.98;100.00;64749.78;5051830;28;20205;-59
2023/06/14 00:27:33;;;;;;;11.07;7.13;;;;;;;17.02;100.00;64759.28;5051918;28;20193;-59
2023/06/14 00:29:59;;;;;;;8.25;5.97;;;;;;;17.04;100.00;64762.03;5051774;28;20213;-58
2023/06/14 00:32:25;;;;;;;8.52;6.60;;;;;;;16.90;100.00;64746.59;5033832;28;20281;-59
2023/06/14 00:34:51;;;;;;;8.75;6.88;;;;;;;16.88;100.00;64743.84;5052020;28;20213;-58
2023/06/14 00:37:17;;;;;;;7.57;6.05;;;;;;;16.83;100.00;64735.81;5052039;28;20201;-59
2023/06/14 00:39:42;;;;;;;9.15;6.22;;;;;;;16.84;100.00;64737.44;5051929;28;20699;-59
2023/06/14 00:42:08;;;;;;;8.32;6.25;;;;;;;16.89;100.00;64744.97;5051666;28;20194;-58
2023/06/14 00:44:33;;;;;;;8.05;6.22;;;;;;;16.92;100.00;64743.16;5051877;28;20255;-59
2023/06/14 00:46:58;;;;;;;9.18;5.70;;;;;;;16.97;100.00;64751.22;5051710;28;20208;-58
2023/06/14 00:49:24;;;;;;;7.40;5.65;;;;;;;16.97;100.00;64751.75;5051678;28;20684;-60
2023/06/14 00:51:51;;;;;;;7.30;5.65;;;;;;;16.92;100.00;64748.25;5051511;28;20216;-59
2023/06/14 00:54:16;;;;;;;6.53;5.82;;;;;;;16.98;100.00;64752.31;5051402;28;20252;-57
2023/06/14 00:56:43;;;;;;;6.78;5.50;;;;;;;17.01;100.00;64753.09;5051366;28;20730;-58
2023/06/14 00:59:11;;;;;;;7.30;5.38;;;;;;;16.98;100.00;64752.88;5051863;28;20209;-56
2023/06/14 01:01:36;;;;;;;9.48;5.32;;;;;;;16.90;100.00;64744.06;5051433;28;20206;-57
2023/06/14 01:04:03;;;;;;;8.05;4.82;;;;;;;16.87;100.00;64740.22;5050563;28;20252;-56
2023/06/14 01:06:42;;;;;;;8.10;5.25;;;;;;;16.89;100.00;64745.50;5051599;28;20233;-58
2023/06/14 01:09:20;;;;;;;7.88;4.20;;;;;;;16.96;100.00;64750.13;5051466;28;20247;-56
2023/06/14 01:12:06;;;;;;;6.97;4.53;;;;;;;16.93;100.00;64747.34;5051447;28;20212;-58
2023/06/14 01:14:34;;;;;;;9.88;5.18;;;;;;;17.01;100.00;64756.16;5033385;28;20224;-60
2023/06/14 01:17:00;;;;;;;7.40;5.22;;;;;;;16.99;100.00;64750.88;5051261;28;20198;-60
2023/06/14 01:19:27;;;;;;;8.80;5.20;;;;;;;17.07;100.00;64759.69;5051440;28;20217;-60
2023/06/14 01:21:55;;;;;;;7.15;4.80;;;;;;;17.09;100.00;64761.91;5051006;28;20194;-61
2023/06/14 01:24:25;;;;;;;8.10;5.13;;;;;;;17.13;100.00;64769.38;5051427;28;20210;-60
2023/06/14 01:26:55;;;;;;;10.02;5.15;;;;;;;17.06;100.00;64761.69;5051275;28;20209;-60
2023/06/14 01:29:22;;;;;;;5.95;5.05;;;;;;;17.06;100.00;64758.59;5049939;28;20296;-60
2023/06/14 01:31:48;;;;;;;5.97;4.88;;;;;;;17.12;100.00;64768.28;5051079;28;20216;-61
2023/06/14 01:34:14;;;;;;;8.63;6.57;;;;;;;17.14;100.00;64769.94;5050720;28;20228;-59
2023/06/14 01:36:42;;;;;;;13.48;6.20;;;;;;;17.12;100.00;64768.28;5049579;28;20213;-58
2023/06/14 01:39:09;;;;;;;7.82;6.43;;;;;;;17.02;100.00;64757.28;5050764;28;20233;-59
2023/06/14 01:41:35;;;;;;;8.95;5.97;;;;;;;17.01;100.00;64753.09;5049924;28;20279;-58
2023/06/14 01:44:02;;;;;;;6.30;5.68;;;;;;;16.92;100.00;64743.16;5051146;28;20201;-59
2023/06/14 01:46:27;;;;;;;8.48;6.95;;;;;;;16.96;100.00;64750.13;5051008;28;20296;-58
2023/06/14 01:48:53;;;;;;;7.40;6.38;;;;;;;16.95;100.00;64749.03;5051049;28;20354;-59
2023/06/14 01:51:18;;;;;;;7.55;6.75;;;;;;;16.95;100.00;64751.56;5050929;28;20578;-58
2023/06/14 01:53:43;;;;;;;13.27;7.60;;;;;;;16.91;100.00;64742.06;5050586;28;20251;-57
2023/06/14 01:56:09;;;;;;;7.90;6.97;;;;;;;16.77;100.00;64727.75;5050818;28;20218;-59
2023/06/14 01:58:35;;;;;;;9.40;7.60;;;;;;;16.91;100.00;64744.63;5050778;28;20225;-58
2023/06/14 02:01:00;;;;;;;9.93;7.38;;;;;;;16.83;100.00;64736.34;5050538;28;20196;-60
2023/06/14 02:03:27;;;;;;;8.23;6.80;;;;;;;16.82;100.00;64734.69;5050737;28;20568;-58
2023/06/14 02:05:52;;;;;;;8.82;7.05;;;;;;;16.81;100.00;64731.06;5050525;28;20247;-58
2023/06/14 02:08:18;;;;;;;8.57;6.75;;;;;;;16.79;100.00;64732.50;5050779;28;20346;-59
2023/06/14 02:10:43;;;;;;;9.73;7.05;;;;;;;16.79;100.00;64735.03;5050441;28;20575;-58
2023/06/14 02:13:09;;;;;;;8.38;6.78;;;;;;;16.75;100.00;64725.00;5050632;28;20193;-56
2023/06/14 02:15:35;;;;;;;7.85;5.90;;;;;;;16.66;100.00;64717.63;5053486;28;20217;-57
2023/06/14 02:18:02;;;;;;;8.45;5.85;;;;;;;16.58;100.00;64711.38;5053934;28;20686;-60
2023/06/14 02:20:28;;;;;;;6.22;5.60;;;;;;;16.61;100.00;64710.13;5053907;28;20204;-60
2023/06/14 02:22:54;;;;;;;6.88;5.53;;;;;;;16.63;100.00;64714.31;5054003;28;20190;-60
2023/06/14 02:25:20;;;;;;;6.47;4.78;;;;;;;16.59;100.00;64710.47;5053983;28;20190;-58
2023/06/14 02:27:45;;;;;;;6.93;5.30;;;;;;;16.69;100.00;64721.47;5053948;28;20204;-57
2023/06/14 02:30:12;;;;;;;7.07;5.57;;;;;;;16.75;100.00;64730.63;5053803;28;20206;-57
2023/06/14 02:32:38;;;;;;;8.23;5.18;;;;;;;16.78;100.00;64730.84;5053841;28;20276;-57
2023/06/14 02:35:04;;;;;;;6.63;5.70;;;;;;;16.81;100.00;64736.16;5052618;28;20221;-59
2023/06/14 02:37:29;;;;;;;5.95;5.13;;;;;;;16.79;100.00;64731.94;5052932;28;20197;-58
2023/06/14 02:39:56;;;;;;;8.93;5.68;;;;;;;16.84;100.00;64734.34;5052972;28;20608;-59
2023/06/14 02:42:21;;;;;;;6.30;5.40;;;;;;;16.88;100.00;64741.31;5053210;28;20225;-59
2023/06/14 02:44:50;;;;;;;7.97;4.97;;;;;;;16.94;100.00;64747.91;5053287;28;20707;-58
2023/06/14 02:47:19;;;;;;;7.30;5.05;;;;;;;16.94;100.00;64745.38;5053551;28;20189;-58
2023/06/14 02:49:46;;;;;;;8.02;5.28;;;;;;;16.90;100.00;64743.50;5053789;28;20267;-57
2023/06/14 02:52:12;;;;;;;5.57;4.85;;;;;;;16.90;100.00;64743.50;5053398;28;20178;-58
2023/06/14 02:54:37;;;;;;;7.65;5.45;;;;;;;16.84;100.00;64737.44;5053697;28;20213;-57
2023/06/14 02:57:03;;;;;;;5.40;4.90;;;;;;;16.98;100.00;64752.31;5053506;28;20228;-56
2023/06/14 02:59:28;;;;;;;7.25;4.72;;;;;;;16.86;100.00;64739.66;5053552;28;20217;-57
2023/06/14 03:01:53;;;;;;;9.95;4.85;;;;;;;16.86;100.00;64739.09;5053254;28;20225;-57
2023/06/14 03:04:20;;;;;;;8.40;5.07;;;;;;;16.82;100.00;64734.69;5035435;28;20220;-57
2023/06/14 03:06:50;;;;;;;6.80;5.18;;;;;;;16.81;100.00;64731.59;5053267;28;20194;-59
2023/06/14 03:09:15;;;;;;;7.22;5.38;;;;;;;16.83;100.00;64733.25;5053041;28;20264;-58
2023/06/14 03:11:41;;;;;;;6.32;5.03;;;;;;;16.75;100.00;64730.06;5053251;28;20193;-59
2023/06/14 03:14:08;;;;;;;7.05;5.38;;;;;;;16.78;100.00;64728.31;5053432;28;20220;-58
2023/06/14 03:16:33;;;;;;;7.47;4.40;;;;;;;16.83;100.00;64733.78;5052933;28;20205;-59
2023/06/14 03:18:59;;;;;;;6.85;5.45;;;;;;;16.82;100.00;64735.25;5053278;28;20209;-57
2023/06/14 03:21:25;;;;;;;7.35;6.00;;;;;;;16.68;100.00;64717.81;5052961;28;20563;-56
2023/06/14 03:23:52;;;;;;;9.30;6.03;;;;;;;16.58;100.00;64706.28;5053016;28;20209;-59
2023/06/14 03:26:18;;;;;;;6.95;5.55;;;;;;;16.58;100.00;64711.38;5052100;28;20217;-61
2023/06/14 03:28:45;;;;;;;10.55;5.82;;;;;;;16.60;100.00;64709.00;5053063;28;20221;-59
2023/06/14 03:31:11;;;;;;;6.13;5.03;;;;;;;16.65;100.00;64717.06;5053009;28;20185;-61
2023/06/14 03:33:36;;;;;;;8.30;5.35;;;;;;;16.74;100.00;64726.44;5052856;28;20309;-59
2023/06/14 03:36:02;;;;;;;6.15;4.93;;;;;;;16.81;100.00;64731.06;5052660;28;20217;-59
2023/06/14 03:38:28;;;;;;;8.80;6.40;;;;;;;16.79;100.00;64731.94;5052831;28;20274;-60
2023/06/14 03:40:53;;;;;;;6.65;5.43;;;;;;;16.83;100.00;64733.78;5052673;28;20205;-61
2023/06/14 03:43:19;;;;;;;7.30;5.90;;;;;;;16.77;100.00;64730.28;5052680;28;20209;-60
2023/06/14 03:45:44;;;;;;;6.93;5.40;;;;;;;16.69;100.00;64718.94;5051246;28;20315;-60
2023/06/14 03:48:10;;;;;;;7.38;5.78;;;;;;;16.55;100.00;64702.97;5060931;23;20213;-58
2023/06/14 03:50:37;;;;;;;6.28;5.38;;;;;;;16.44;100.00;64693.94;5072202;28;20570;-57
2023/06/14 03:53:03;;;;;;;7.95;6.00;;;;;;;16.38;100.00;64687.31;5072364;28;20196;-57
2023/06/14 03:55:31;;;;;;;10.35;6.30;;;;;;;16.38;100.00;64686.78;5072717;28;20295;-57
2023/06/14 03:57:56;;;;;;;7.65;5.82;;;;;;;16.35;100.00;64680.94;5054673;28;20209;-58
2023/06/14 04:00:22;;;;;;;8.77;6.68;;;;;;;16.37;100.00;64686.22;5072432;28;20193;-59
2023/06/14 04:02:47;;;;;;;8.23;6.63;;;;;;;16.43;100.00;64692.84;5072511;28;20193;-58
2023/06/14 04:05:13;;;;;;;8.35;6.13;;;;;;;16.58;100.00;64711.91;5072322;28;20252;-59
2023/06/14 04:07:44;;;;;;;10.55;7.03;;;;;;;16.59;100.00;64707.94;5072402;28;20196;-60
2023/06/14 04:10:11;;;;;;;6.85;6.10;;;;;;;16.42;100.00;64689.19;5072141;28;20295;-60
2023/06/14 04:12:36;;;;;;;8.93;6.85;;;;;;;16.42;100.00;64689.19;5072252;28;20212;-57
2023/06/14 04:15:03;;;;;;;9.40;6.10;;;;;;;16.42;100.00;64691.72;5072115;28;20209;-59
2023/06/14 04:17:29;;;;;;;8.20;6.72;;;;;;;16.51;100.00;64701.66;5072000;28;20197;-58
2023/06/14 04:19:55;;;;;;;6.95;6.13;;;;;;;16.65;100.00;64717.06;5071844;28;20201;-56
2023/06/14 04:22:20;;;;;;;7.38;5.88;;;;;;;16.68;100.00;64717.28;5072384;28;20264;-57
2023/06/14 04:24:46;;;;;;;8.10;6.13;;;;;;;16.76;100.00;64726.09;5072342;28;20629;-57
2023/06/14 04:27:11;;;;;;;8.15;5.90;;;;;;;16.75;100.00;64725.53;5054139;28;20299;-57
2023/06/14 04:29:37;;;;;;;7.00;6.22;;;;;;;16.77;100.00;64727.75;5072023;28;20224;-57
2023/06/14 04:32:02;;;;;;;8.93;6.47;;;;;;;16.90;100.00;64741.50;5071982;28;20204;-56
2023/06/14 04:34:33;;;;;;;13.30;7.25;;;;;;;16.95;100.00;64746.47;5071896;28;20718;-57
2023/06/14 04:37:01;;;;;;;7.28;6.47;;;;;;;17.17;100.00;64773.25;5071371;28;20665;-58
2023/06/14 04:39:27;;;;;;;7.93;6.72;;;;;;;17.16;100.00;64770.16;5071300;28;20220;-56
2023/06/14 04:41:56;;;;;;;7.65;6.95;;;;;;;17.18;100.00;64774.34;5071746;28;20609;-57
2023/06/14 04:44:24;;;;;;;7.95;6.95;;;;;;;17.22;100.00;64776.22;5072108;28;20219;-57
2023/06/14 04:46:50;;;;;;;9.68;7.10;;;;;;;17.33;100.00;64788.88;5071554;28;20738;-57
2023/06/14 04:49:16;;;;;;;9.27;6.63;;;;;;;17.43;100.00;64799.88;5073084;28;20292;-56
2023/06/14 04:51:42;;;;;;;8.25;7.35;;;;;;;17.48;100.00;64807.41;5071617;28;20197;-58
2023/06/14 04:54:10;;;;;;;10.70;7.38;;;;;;;17.31;100.00;64786.66;5071525;28;20211;-57
2023/06/14 04:56:37;;;;;;;9.75;8.15;;;;;;;17.20;100.00;64774.56;5071538;28;20248;-58
2023/06/14 04:59:04;;;;;;;10.00;8.32;;;;;;;17.22;100.00;64776.22;5071315;28;20262;-57
2023/06/14 05:01:31;;;;;;;11.38;7.82;;;;;;;17.57;100.00;64814.81;5071267;28;20219;-55
2023/06/14 05:04:00;;;;;;;11.70;7.10;;;;;;;18.08;100.00;64871.00;5071082;28;20223;-56
2023/06/14 05:06:28;;;;;;;10.43;7.53;;;;;;;18.34;100.00;64899.16;5071143;28;20270;-62
2023/06/14 05:08:54;;;;;;;11.32;9.05;;;;;;;18.45;100.00;64911.28;5071400;28;20212;-56
2023/06/14 05:11:20;;;;;;;8.98;7.93;;;;;;;18.77;100.00;64949.13;5071156;28;20200;-57
2023/06/14 05:13:46;;;;;;;14.95;8.55;;;;;;;18.85;100.00;64955.41;5071519;28;20258;-58
2023/06/14 05:16:12;;;;;;;9.82;8.57;;;;;;;19.01;100.00;64975.63;5070797;28;20220;-58
2023/06/14 05:18:40;;;;;;;15.18;9.68;;;;;;;19.24;100.00;65000.47;5071185;28;20300;-57
2023/06/14 05:21:05;;;;;;;12.55;9.85;;;;;;;19.42;100.00;65022.91;5071218;28;20201;-57
2023/06/14 05:23:31;;;;;;;11.55;8.13;;;;;;;19.52;100.00;65026.28;5070852;28;20635;-57
2023/06/14 05:25:56;;;;;;;12.90;9.73;;;;;;;19.31;100.00;65008.19;5071171;28;20197;-56
2023/06/14 05:28:23;;;;;;;14.43;9.88;;;;;;;19.26;100.00;65002.66;5071279;28;20679;-55
2023/06/14 05:30:49;;;;;;;13.52;9.30;;;;;;;19.19;100.00;64992.94;5052972;28;20610;-56
2023/06/14 05:33:14;;;;;;;13.80;9.20;;;;;;;18.92;100.00;64962.59;5071012;28;20208;-57
2023/06/14 05:35:40;;;;;;;11.73;9.73;;;;;;;18.77;100.00;64949.13;5070303;28;20305;-55
2023/06/14 05:38:07;;;;;;;14.13;9.45;;;;;;;18.89;100.00;64959.81;5070879;28;20200;-60
2023/06/14 05:40:33;;;;;;;11.70;9.93;;;;;;;19.02;100.00;64974.19;5070774;28;20205;-61
2023/06/14 05:42:58;;;;;;;16.92;10.70;;;;;;;18.90;100.00;64960.38;5069184;28;20219;-59
2023/06/14 05:45:23;;;;;;;12.52;10.15;;;;;;;18.82;100.00;64951.56;5069383;28;20544;-59
2023/06/14 05:47:50;;;;;;;13.25;10.02;;;;;;;18.54;100.00;64920.66;5070926;28;20199;-58
2023/06/14 05:50:16;;;;;;;16.20;11.60;;;;;;;18.60;100.00;64929.84;5052387;28;20209;-60
2023/06/14 05:52:41;;;;;;;13.50;10.20;;;;;;;18.67;100.00;64935.00;5070767;28;20195;-59
2023/06/14 05:55:07;;;;;;;12.55;9.50;;;;;;;18.89;100.00;64961.81;5070530;28;20220;-58
2023/06/14 05:57:32;;;;;;;12.32;9.57;;;;;;;19.10;100.00;64985.56;5070786;28;20189;-57
2023/06/14 05:59:58;;;;;;;12.77;9.75;;;;;;;19.41;100.00;65019.25;5070564;28;20751;-58
2023/06/14 06:02:24;;;;;;;12.98;10.00;;;;;;;19.60;100.00;65037.09;5070448;28;20196;-59
2023/06/14 06:04:49;;;;;;;10.20;8.68;;;;;;;19.85;100.00;65065.28;5070507;28;20217;-56
2023/06/14 06:07:15;;;;;;;10.23;7.50;;;;;;;20.31;100.00;65115.00;5070461;28;20656;-57
2023/06/14 06:09:40;;;;;;;13.40;9.52;;;;;;;20.50;100.00;65136.00;5070374;28;20209;-59
2023/06/14 06:12:07;;;;;;;13.95;9.55;;;;;;;20.52;100.00;65138.22;5069256;28;20285;-58
2023/06/14 06:14:32;;;;;;;12.48;9.60;;;;;;;20.60;100.00;65147.06;5070993;28;20240;-58
2023/06/14 06:16:58;;;;;;;13.30;8.82;;;;;;;20.71;100.00;65159.22;5069843;28;20259;-58
2023/06/14 06:19:24;;;;;;;12.73;9.98;;;;;;;20.79;100.00;65165.47;5070585;28;20295;-58
2023/06/14 06:21:50;;;;;;;13.98;10.60;;;;;;;20.89;100.00;65177.09;5070499;28;20200;-58
2023/06/14 06:24:15;;;;;;;15.90;10.48;;;;;;;20.75;100.00;65164.19;5070551;28;20216;-58
2023/06/14 06:26:41;;;;;;;9.75;8.65;;;;;;;20.70;100.00;65155.56;5070271;28;20219;-58
2023/06/14 06:29:07;;;;;;;13.63;10.15;;;;;;;20.67;100.00;65155.34;5070215;28;20221;-57
2023/06/14 06:31:32;;;;;;;12.82;10.18;;;;;;;20.73;100.00;65164.53;5070185;28;20201;-57
2023/06/14 06:33:58;;;;;;;14.75;10.15;;;;;;;20.57;100.00;65144.28;5069989;28;20209;-60
2023/06/14 06:36:24;;;;;;;13.90;9.60;;;;;;;20.49;100.00;65134.91;5070042;28;20224;-59
2023/06/14 06:38:50;;;;;;;16.67;11.45;;;;;;;20.54;100.00;65140.97;5070267;28;20213;-59
2023/06/14 06:41:15;;;;;;;16.23;9.77;;;;;;;20.45;100.00;65130.47;5070112;28;20200;-59
2023/06/14 06:43:41;;;;;;;12.57;9.48;;;;;;;20.32;100.00;65114.09;5070071;28;20213;-62
2023/06/14 06:46:07;;;;;;;12.93;10.43;;;;;;;20.32;100.00;65116.13;5069932;28;20678;-61
2023/06/14 06:48:32;;;;;;;13.75;9.93;;;;;;;20.36;100.00;65121.06;5070145;28;20236;-61
2023/06/14 06:50:57;;;;;;;14.70;11.90;;;;;;;20.37;100.00;65124.75;5070270;28;20221;-60
2023/06/14 06:53:23;;;;;;;10.63;9.38;;;;;;;20.41;100.00;65126.06;5070096;28;20205;-60
2023/06/14 06:55:49;;;;;;;13.38;10.85;;;;;;;20.45;100.00;65130.47;5070044;28;20298;-60
2023/06/14 06:58:15;;;;;;;15.18;11.50;;;;;;;20.28;100.00;65111.69;5051880;28;20269;-60
2023/06/14 07:00:40;;;;;;;14.15;9.98;;;;;;;20.22;100.00;65102.50;5070213;28;20201;-61
2023/06/14 07:03:06;;;;;;;14.73;10.68;;;;;;;20.21;100.00;65103.97;5073309;28;20201;-58
2023/06/14 07:05:32;;;;;;;14.45;11.15;;;;;;;20.30;100.00;65117.00;5073305;28;20295;-57
2023/06/14 07:07:58;;;;;;;13.45;10.50;;;;;;;20.23;100.00;65106.72;5073320;28;20243;-57
2023/06/14 07:10:24;;;;;;;13.88;10.82;;;;;;;20.34;100.00;65120.88;5073171;28;20200;-57
2023/06/14 07:12:50;;;;;;;13.68;10.00;;;;;;;20.40;100.00;65122.94;5073140;28;20323;-57
2023/06/14 07:15:15;;;;;;;16.35;11.40;;;;;;;20.43;100.00;65128.25;5073039;28;20711;-57
2023/06/14 07:17:41;;;;;;;12.43;9.52;;;;;;;20.65;100.00;65153.13;5073030;28;20280;-57
2023/06/14 07:20:13;;;;;;;17.38;13.00;;;;;;;20.80;100.00;65169.16;5072971;28;20205;-59
2023/06/14 07:22:43;;;;;;;14.38;10.52;;;;;;;20.98;100.00;65189.06;5073255;28;20224;-58
2023/06/14 07:25:15;;;;;;;15.63;11.57;;;;;;;21.24;100.00;65217.84;5073096;28;20214;-59
2023/06/14 07:27:42;;;;;;;15.00;13.23;;;;;;;21.55;100.00;65249.53;5072885;28;20746;-60
2023/06/14 07:30:08;;;;;;;15.10;11.68;;;;;;;21.31;100.00;65225.56;5072851;28;20208;-60
2023/06/14 07:32:34;;;;;;;15.70;10.52;;;;;;;21.16;100.00;65208.97;5072702;28;20211;-61
2023/06/14 07:34:59;;;;;;;16.52;11.48;;;;;;;21.14;100.00;65211.34;5072797;28;20201;-61
2023/06/14 07:37:24;;;;;;;13.85;9.00;;;;;;;21.15;100.00;65207.34;5072719;28;20689;-59
2023/06/14 07:39:50;;;;;;;11.43;9.57;;;;;;;21.47;100.00;65243.25;5072695;28;20209;-59
2023/06/14 07:42:15;;;;;;;12.05;9.85;;;;;;;21.51;100.00;65242.00;5072679;28;20193;-59
2023/06/14 07:44:41;;;;;;;10.13;9.10;;;;;;;21.57;100.00;65254.31;5072904;28;20216;-60
2023/06/14 07:47:06;;;;;;;13.52;8.65;;;;;;;21.68;100.00;65265.94;5072548;28;20172;-60
2023/06/14 07:49:32;;;;;;;13.43;10.07;;;;;;;21.85;100.00;65284.78;5072566;28;20300;-60
2023/06/14 07:51:58;;;;;;;17.55;10.38;;;;;;;22.11;100.00;65313.00;5072690;28;20595;-60
2023/06/14 07:54:26;;;;;;;12.82;9.27;;;;;;;22.18;100.00;65321.28;5072585;28;20766;-60
2023/06/14 07:56:51;;;;;;;10.25;9.25;;;;;;;22.45;98.46;65351.19;5072525;28;20220;-59
2023/06/14 07:59:17;;;;;;;14.50;11.00;;;;;;;22.59;98.08;65363.00;5072453;28;20571;-59
2023/06/14 08:01:46;;;;;;;17.38;9.23;;;;;;;22.48;100.00;65351.38;5072422;28;20227;-59
2023/06/14 08:04:13;;;;;;;11.77;8.57;;;;;;;22.82;100.00;65391.63;5072240;28;20234;-60
2023/06/14 08:06:39;;;;;;;13.80;10.20;;;;;;;23.25;96.28;65439.22;5072316;28;20266;-60
2023/06/14 08:09:05;;;;;;;15.82;11.05;;;;;;;23.58;92.42;65472.13;5072657;28;20596;-61
2023/06/14 08:11:31;;;;;;;12.18;9.35;;;;;;;23.20;92.44;65433.72;5071907;28;20250;-60
2023/06/14 08:13:56;;;;;;;15.32;10.05;;;;;;;23.20;93.66;65431.13;5072372;28;20208;-59
2023/06/14 08:16:22;;;;;;;12.00;10.20;;;;;;;23.01;93.31;65410.06;5072082;28;20698;-60
2023/06/14 08:18:47;;;;;;;11.75;9.40;;;;;;;23.09;97.53;65421.50;5072239;28;20223;-61
2023/06/14 08:21:14;;;;;;;12.63;9.40;;;;;;;23.42;93.50;65451.84;5072178;28;20193;-60
2023/06/14 08:23:47;;;;;;;17.25;9.90;;;;;;;23.75;91.54;65493.56;5072139;28;20213;-60
2023/06/14 08:26:13;;;;;;;13.40;9.30;;;;;;;24.01;88.94;65519.81;5072084;28;20593;-60
2023/06/14 08:28:38;;;;;;;12.02;10.07;;;;;;;24.21;88.89;65544.56;5072135;28;20215;-61
2023/06/14 08:31:04;;;;;;;11.43;10.23;;;;;;;23.80;89.61;65494.50;5071880;28;20200;-60
2023/06/14 08:33:29;;;;;;;11.68;10.00;;;;;;;23.73;90.94;65488.78;5053833;28;20213;-59
2023/06/14 08:35:55;;;;;;;11.90;9.07;;;;;;;23.90;93.40;65507.59;5071787;28;20221;-60
2023/06/14 08:38:20;;;;;;;12.35;8.95;;;;;;;24.07;88.73;65523.91;5071859;28;20213;-60
2023/06/14 08:40:51;;;;;;;11.15;8.18;;;;;;;24.09;90.13;65531.84;5071716;28;20212;-65
2023/06/14 08:43:16;;;;;;;10.43;9.32;;;;;;;24.26;86.77;65544.97;5071693;28;20213;-62
2023/06/14 08:45:42;;;;;;;13.65;8.95;;;;;;;24.38;84.09;65560.84;5071646;28;20311;-60
2023/06/14 08:48:08;;;;;;;10.10;8.27;;;;;;;24.38;86.84;65560.84;5071542;28;20287;-60
2023/06/14 08:50:38;;;;;;;13.05;9.38;;;;;;;24.56;83.21;65583.41;5071539;28;20251;-58
2023/06/14 08:53:10;;;;;;;10.82;8.63;;;;;;;24.61;86.87;65588.94;5071576;28;20220;-58
2023/06/14 08:55:38;;;;;;;10.38;8.63;;;;;;;24.51;79.37;65580.41;5071664;28;20205;-58
2023/06/14 08:58:04;;;;;;;9.75;7.40;;;;;;;24.47;85.18;65572.84;5071524;28;20266;-57
2023/06/14 09:00:30;;;;;;;10.77;8.30;;;;;;;24.26;84.45;65550.09;5071411;28;20200;-58
2023/06/14 09:02:57;;;;;;;9.75;8.52;;;;;;;24.26;82.29;65547.53;5071400;28;20645;-57
2023/06/14 09:05:24;;;;;;;10.77;9.63;;;;;;;24.37;85.33;65559.19;5071435;28;20674;-57
2023/06/14 09:07:50;;;;;;;12.20;9.23;;;;;;;24.32;86.87;65553.66;5071400;28;20224;-56
2023/06/14 09:10:16;;;;;;;11.25;8.55;;;;;;;24.32;84.44;65556.75;5071142;28;20196;-57
2023/06/14 09:12:45;;;;;;;9.93;8.57;;;;;;;24.33;86.25;65557.88;5071168;28;20179;-56
2023/06/14 09:15:10;;;;;;;9.48;8.20;;;;;;;24.88;83.69;65618.91;5071038;28;20223;-56
2023/06/14 09:17:36;;;;;;;12.82;9.13;;;;;;;25.05;79.22;65636.66;5070878;28;20200;-58
2023/06/14 09:20:09;;;;;;;15.02;9.57;;;;;;;25.21;79.60;65649.25;5070523;28;20689;-57
2023/06/14 09:22:35;;;;;;;11.63;9.02;;;;;;;25.00;84.32;65629.09;5069356;28;20621;-58
2023/06/14 09:25:01;;;;;;;11.07;8.70;;;;;;;24.71;84.86;65597.44;5069990;28;20212;-57
2023/06/14 09:27:27;;;;;;;11.70;8.02;;;;;;;24.47;87.80;65572.84;5070975;28;20196;-61
2023/06/14 09:29:52;;;;;;;14.10;9.73;;;;;;;24.28;85.88;65551.78;5070908;28;20262;-62
2023/06/14 09:32:18;;;;;;;10.43;9.23;;;;;;;23.94;84.78;65515.16;5070997;28;20588;-61
2023/06/14 09:34:45;;;;;;;12.85;10.88;;;;;;;23.87;82.20;65504.84;5070788;28;20688;-60
2023/06/14 09:37:10;;;;;;;11.23;10.02;;;;;;;23.39;87.09;65453.66;5070820;28;20633;-57
2023/06/14 09:39:48;;;;;;;12.50;9.18;;;;;;;23.18;90.12;65430.94;5071223;28;20236;-60
2023/06/14 09:42:20;;;;;;;9.80;8.80;;;;;;;23.17;90.06;65427.81;5071067;28;20200;-60
2023/06/14 09:44:49;;;;;;;10.05;8.50;;;;;;;23.47;93.36;65462.53;5052878;28;20221;-60
2023/06/14 09:47:15;;;;;;;15.60;8.30;;;;;;;23.37;89.99;65448.88;5070736;28;20280;-61
2023/06/14 09:49:42;;;;;;;12.20;8.60;;;;;;;23.59;88.44;65473.25;5070784;28;20223;-60
2023/06/14 09:52:11;;;;;;;13.27;7.90;;;;;;;23.76;88.40;65494.66;5070752;28;20193;-61
2023/06/14 09:54:46;;;;;;;9.40;7.55;;;;;;;23.76;89.40;65495.22;5070436;28;20209;-61
2023/06/14 09:57:12;;;;;;;10.98;9.52;;;;;;;23.68;82.90;65483.78;5070422;28;20220;-60
2023/06/14 09:59:42;;;;;;;10.50;8.52;;;;;;;23.48;87.27;65459.03;5071003;28;20209;-59
2023/06/14 10:02:23;;;;;;;12.10;9.57;;;;;;;23.45;88.64;65455.16;5070156;28;20207;-60
2023/06/14 10:05:06;;;;;;;10.55;8.80;;;;;;;23.46;89.46;65461.41;5052623;28;20707;-62
2023/06/14 10:07:55;;;;;;;10.07;8.93;;;;;;;23.81;83.24;65500.78;5070535;28;20196;-61
2023/06/14 10:10:21;;;;;;;8.60;7.75;;;;;;;24.12;81.82;65534.59;5070429;28;20192;-59
2023/06/14 10:12:47;;;;;;;12.32;9.20;;;;;;;24.35;77.45;65560.09;5070338;28;20587;-60
2023/06/14 10:15:23;;;;;;;9.60;8.48;;;;;;;24.85;78.23;65613.00;5069678;28;20255;-59
2023/06/14 10:18:05;;;;;;;8.45;7.65;;;;;;;25.34;78.31;65668.84;5068836;28;20212;-60
2023/06/14 10:20:35;;;;;;;9.68;8.55;;;;;;;25.60;78.28;65697.72;5068966;28;20205;-61
2023/06/14 10:23:21;;;;;;;9.10;7.88;;;;;;;25.75;72.22;65711.81;5070345;28;20193;-60
2023/06/14 10:25:50;;;;;;;9.90;8.05;;;;;;;25.87;71.83;65730.28;5069514;28;20678;-58
2023/06/14 10:28:20;;;;;;;8.45;7.60;;;;;;;25.74;70.40;65713.25;5069638;28;20209;-58
2023/06/14 10:31:11;;;;;;;11.23;8.27;;;;;;;25.33;71.99;65667.75;5070248;28;20205;-57
2023/06/14 10:33:50;;;;;;;10.38;7.38;;;;;;;25.69;74.50;65705.13;5070120;28;20213;-58
2023/06/14 10:36:21;;;;;;;8.32;7.13;;;;;;;26.25;72.10;65769.94;5072702;28;20299;-57
2023/06/14 10:38:59;;;;;;;9.75;7.45;;;;;;;26.55;71.76;65797.53;5073704;28;20304;-56
2023/06/14 10:41:28;;;;;;;9.25;7.25;;;;;;;26.58;68.23;65804.00;5073676;28;20196;-57
2023/06/14 10:44:12;;;;;;;10.23;7.20;;;;;;;26.06;69.46;65743.63;5073414;28;20703;-56
2023/06/14 10:46:37;;;;;;;10.25;7.05;;;;;;;26.42;69.87;65788.81;5073708;28;20201;-57
2023/06/14 10:49:06;;;;;;;9.20;7.43;;;;;;;26.75;65.00;65821.78;5073739;28;20208;-58
2023/06/14 10:51:48;;;;;;;8.98;7.60;;;;;;;26.64;64.44;65810.66;5073204;28;20638;-58
2023/06/14 10:54:14;;;;;;;8.75;7.35;;;;;;;27.03;68.20;65853.47;5073295;28;20262;-57
2023/06/14 10:56:50;;;;;;;8.45;7.65;;;;;;;27.51;66.24;65908.34;5073593;28;20213;-58
2023/06/14 10:59:18;;;;;;;14.30;8.95;;;;;;;27.16;63.06;65867.94;5073236;28;20215;-57
2023/06/14 11:01:58;;;;;;;8.82;7.70;;;;;;;27.09;64.61;65859.59;5073390;28;20219;-56
2023/06/14 11:04:34;;;;;;;8.23;6.95;;;;;;;26.67;66.01;65815.47;5073254;28;20306;-57
2023/06/14 11:07:18;;;;;;;8.45;7.32;;;;;;;26.22;68.27;65766.59;5073292;28;20254;-57
2023/06/14 11:10:05;;;;;;;9.02;7.00;;;;;;;25.85;72.30;65725.47;5073170;28;20259;-57
2023/06/14 11:12:35;;;;;;;11.38;7.57;;;;;;;25.93;72.92;65733.81;5073252;28;20287;-58
2023/06/14 11:15:01;;;;;;;8.52;7.25;;;;;;;25.63;70.36;65698.47;5072968;28;20213;-57
2023/06/14 11:17:26;;;;;;;8.25;7.40;;;;;;;25.74;69.18;65710.69;5073133;28;20258;-58
2023/06/14 11:20:09;;;;;;;9.15;7.78;;;;;;;25.86;63.08;65724.00;5073143;28;20215;-60
2023/06/14 11:22:42;;;;;;;9.68;7.57;;;;;;;25.61;70.03;65696.25;5072617;28;20292;-57